Carbonton, North Carolina
Current Conditions -  °F | °C
As of 7:15 AM on Friday 31 Oct 2014 (Local Time) from KTTA Reporting Station
Clear Clear  
Wind Chill: 38°   Ceiling: Unl
Heat Index: 38°   Visibility: 10mi
Dew Point: 38°   Wind: 0mph
Humidity: 99%   Direction: NA
Pressure: 29.95"   Gusts: NA
Location:  35.493°N, 79.1765°W
Report Text: KTTA 311115Z AUTO 00000KT 10SM CLR 04/03 A2995 RMK AO2 T00350034
Loading
Personal Weather Stations






























Interactive Weather Map
Tropical Storm Tracking
New forecast layout! Learn more

10-Day Weather Forecast

Advertisements
Track Severe Weather on mobile